Nearby METAR Reports

 

EGUW - Wattisham Raf, United Kingdom
Distance from station: SW 12mi, 19km
Updated: 11/12/2017 02:50
Fog, Mostly cloudy
Fog, Mostly cloudy
 Wind from NE
Wind: NE 7 mph , 11 km/h
Temperature: 0°C
Wind Chill: -4°C
Dew Point: 0°C
Humidity: 100%
Barometer: 982 hPa
Summary: Fog
Clouds: Mostly cloudy
Visibility: 0 mile , 1 km
Cloud details: Mostly cloudy 1128 m
2017/12/11 02:50 EGUW 110250Z AUTO 05006KT 0500 FG BKN037/// M00/M00 Q0982
EGUL - Lakenheath Raf, United Kingdom
Distance from station: WNW 29mi, 47km
Updated: 11/12/2017 02:56
Mostly cloudy
Mostly cloudy
 Wind from NE
Wind: NE 6 mph , 9 km/h
Temperature: 0°C
Wind Chill: -3°C
Dew Point: 0°C
Humidity: 100%
Barometer: 982.7 hPa
Clouds: Mostly cloudy
Visibility: 6 miles , 10 km
Cloud details: Mostly cloudy 1189 m
Mostly cloudy 3353 m
2017/12/11 02:56 EGUL 110256Z AUTO 05005KT 9999 BKN039 BKN110 00/00 A2902 RMK AO2 SLP831 T10011001 52018
 
EGUN - Mildenhall Raf, United Kingdom
Distance from station: WNW 32mi, 51km
Updated: 11/12/2017 03:30
Mist, Partly cloudy
Mist, Partly cloudy
 Wind from NE
Wind: NE 7 mph , 11 km/h
Temperature: 0°C
Wind Chill: -4°C
Dew Point: 0°C
Humidity: 100%
Barometer: 982.1 hPa
Summary: Mist
Clouds: Partly cloudy
Visibility: 5 miles , 8 km
Cloud details: Few Clouds 0 m
Partly cloudy 3353 m
2017/12/11 03:30 EGUN 110330Z AUTO 04006KT 8000 BR FEW000 SCT110 00/00 A2900 RMK AO2 VIS 4400 RWY29 FZDZB00E01 SLP824 $
EGSH - Norwich Wea Cntr, United Kingdom
Distance from station: N 32mi, 52km
Updated: 11/12/2017 03:20
Mist, Partly cloudy
Mist, Partly cloudy
 Wind from varies
Wind: varies 1 mph , 2 km/h
Temperature: 0°C
Dew Point: 0°C
Humidity: 100%
Barometer: 983 hPa
Summary: Mist
Clouds: Partly cloudy
Visibility: 1 mile , 1 km
Cloud details: Partly cloudy 1036 m
2017/12/11 03:20 EGSH 110320Z AUTO VRB01KT 1300 BR SCT034/// 00/00 Q0983
 
EGYM - Marham Raf, United Kingdom
Distance from station: NW 39mi, 62km
Updated: 11/12/2017 02:50
Mostly cloudy
Mostly cloudy
 Wind from NE
Wind: NE 8 mph , 13 km/h
Temperature: 2°C
Wind Chill: -1°C
Dew Point: 2°C
Humidity: 100%
Barometer: 983 hPa
Clouds: Mostly cloudy
Visibility: 6 miles , 10 km
Cloud details: Few Clouds 1189 m
Partly cloudy 2134 m
Mostly cloudy 3048 m
2017/12/11 02:50 EGYM 110250Z AUTO 05007KT 9999 FEW039/// SCT070/// BKN100/// 02/02 Q0983
EGSC - Cambridge, United Kingdom
Distance from station: W 43mi, 69km
Updated: 10/12/2017 15:50
NOT Current
Mostly cloudy
Mostly cloudy
 Wind from NW
Wind: NW 9 mph , 15 km/h
Temperature: 1°C
Wind Chill: -3°C
Dew Point: 1°C
Humidity: 100%
Barometer: 976 hPa
Clouds: Mostly cloudy
Visibility: 6 miles , 9 km
Cloud details: Few Clouds 91 m
Mostly cloudy 152 m
2017/12/10 15:50 EGSC 101550Z 31008KT 9000 FEW003 BKN005 01/01 Q0976
 
EGSS - Stansted Airport, United Kingdom
Distance from station: WSW 47mi, 76km
Updated: 11/12/2017 03:20
Fog
Fog
 Wind from ENE
Wind: ENE 9 mph , 15 km/h
Temperature: 0°C
Wind Chill: -4°C
Dew Point: 0°C
Humidity: 100%
Barometer: 981 hPa
Summary: Fog
Visibility: 0 mile , 1 km
2017/12/11 03:20 EGSS 110320Z AUTO 07008KT 0500 R04/0900 FG VV/// 00/M00 Q0981
EGUO - Oakington, United Kingdom
Distance from station: W 47mi, 76km
Updated: 19/11/2017 06:50
NOT Current
Partly cloudy
Partly cloudy
 Wind from W
Wind: W 6 mph , 9 km/h
Temperature: 3°C
Wind Chill: 0°C
Dew Point: 3°C
Humidity: 100%
Barometer: 1023 hPa
Clouds: Partly cloudy
Visibility: 6 miles , 10 km
Cloud details: Few Clouds 1067 m
Partly cloudy 5486 m
2017/11/19 06:50 EGUO 190650Z 26005KT 9999 FEW035 SCT180 03/03 Q1023 BLU NOSIG
 
EGMC - Southend-On-Sea, United Kingdom
Distance from station: SSW 50mi, 80km
Updated: 11/12/2017 02:50
Fog, Overcast
Fog, Overcast
 Wind from N
Wind: N 6 mph , 9 km/h
Temperature: 0°C
Wind Chill: -3°C
Dew Point: -1°C
Humidity: 93%
Barometer: 981 hPa
Summary: Fog
Clouds: Overcast
Visibility: 0 mile , 0 km
Cloud details: Overcast 30 m
2017/12/11 02:50 EGMC 110250Z 36005KT 0300 R23/0375 R05/0400 FG OVC001 00/M01 Q0981